Terminal Aerodrome Forecast
Issued by NWS Jackson, KY

Home | Current Version | Previous Version | Text Only | Print | Product List | Glossary On
Versions: 1 2 3 4 5 6 7 8 9 10 11 12 13 14 15 16 17 18
999
FTUS43 KJKL 190102 AAA
TAFLOZ
TAF AMD
KLOZ 190102Z 1901/1924 27020G35KT P6SM VCTS OVC025CB
      TEMPO 1901/1903 1SM +RA OVC010
     FM190300 27020G30KT 5SM -SHRA OVC015
     FM190500 28020G28KT 5SM -SHRA OVC010
     FM190700 29014G23KT P6SM OVC015
     FM192100 29011KT P6SM SCT070=

USA.gov is the U.S. government's official web portal to all federal, state and local government web resources and services.